sensor_id;sensor_type;location;lat;lon;timestamp;P1;durP1;ratioP1;P2;durP2;ratioP2
48805;SDS011;34625;47.176;27.548;2024-03-07T00:00:09;19.67;;;10.80;;
48805;SDS011;34625;47.176;27.548;2024-03-07T00:02:45;19.15;;;11.15;;
48805;SDS011;34625;47.176;27.548;2024-03-07T00:05:13;16.48;;;9.07;;
48805;SDS011;34625;47.176;27.548;2024-03-07T00:07:40;9.02;;;6.50;;
48805;SDS011;34625;47.176;27.548;2024-03-07T00:10:06;7.35;;;4.82;;
48805;SDS011;34625;47.176;27.548;2024-03-07T00:12:36;16.00;;;10.25;;
48805;SDS011;34625;47.176;27.548;2024-03-07T00:15:04;19.35;;;9.30;;
48805;SDS011;34625;47.176;27.548;2024-03-07T00:17:31;22.08;;;11.57;;
48805;SDS011;34625;47.176;27.548;2024-03-07T00:19:58;16.58;;;9.57;;
48805;SDS011;34625;47.176;27.548;2024-03-07T00:22:24;20.20;;;11.77;;
48805;SDS011;34625;47.176;27.548;2024-03-07T00:24:55;19.98;;;12.73;;
48805;SDS011;34625;47.176;27.548;2024-03-07T00:27:22;17.23;;;11.30;;
48805;SDS011;34625;47.176;27.548;2024-03-07T00:29:48;17.17;;;8.85;;
48805;SDS011;34625;47.176;27.548;2024-03-07T00:32:19;19.52;;;11.63;;
48805;SDS011;34625;47.176;27.548;2024-03-07T00:34:46;22.52;;;12.85;;
48805;SDS011;34625;47.176;27.548;2024-03-07T00:37:13;16.80;;;9.10;;
48805;SDS011;34625;47.176;27.548;2024-03-07T00:39:39;23.33;;;13.80;;
48805;SDS011;34625;47.176;27.548;2024-03-07T00:42:06;19.90;;;10.80;;
48805;SDS011;34625;47.176;27.548;2024-03-07T00:44:33;17.45;;;9.98;;
48805;SDS011;34625;47.176;27.548;2024-03-07T00:47:02;26.70;;;13.25;;
48805;SDS011;34625;47.176;27.548;2024-03-07T00:49:29;18.17;;;9.57;;
48805;SDS011;34625;47.176;27.548;2024-03-07T00:51:57;20.75;;;11.00;;
48805;SDS011;34625;47.176;27.548;2024-03-07T00:54:24;23.50;;;14.73;;
48805;SDS011;34625;47.176;27.548;2024-03-07T00:56:50;23.88;;;13.70;;
48805;SDS011;34625;47.176;27.548;2024-03-07T00:59:16;22.13;;;12.77;;
48805;SDS011;34625;47.176;27.548;2024-03-07T01:01:43;23.48;;;13.30;;
48805;SDS011;34625;47.176;27.548;2024-03-07T01:04:10;23.83;;;12.98;;
48805;SDS011;34625;47.176;27.548;2024-03-07T01:06:37;22.08;;;12.63;;
48805;SDS011;34625;47.176;27.548;2024-03-07T01:09:04;19.80;;;10.60;;
48805;SDS011;34625;47.176;27.548;2024-03-07T01:11:38;18.08;;;10.80;;
48805;SDS011;34625;47.176;27.548;2024-03-07T01:14:05;11.05;;;7.47;;
48805;SDS011;34625;47.176;27.548;2024-03-07T01:16:31;13.85;;;7.55;;
48805;SDS011;34625;47.176;27.548;2024-03-07T01:18:57;18.33;;;10.25;;
48805;SDS011;34625;47.176;27.548;2024-03-07T01:21:24;26.35;;;13.63;;
48805;SDS011;34625;47.176;27.548;2024-03-07T01:23:51;24.63;;;13.45;;
48805;SDS011;34625;47.176;27.548;2024-03-07T01:26:17;26.90;;;14.38;;
48805;SDS011;34625;47.176;27.548;2024-03-07T01:28:44;23.35;;;13.40;;
48805;SDS011;34625;47.176;27.548;2024-03-07T01:31:10;21.88;;;11.88;;
48805;SDS011;34625;47.176;27.548;2024-03-07T01:33:37;23.60;;;12.80;;
48805;SDS011;34625;47.176;27.548;2024-03-07T01:36:03;22.13;;;11.45;;
48805;SDS011;34625;47.176;27.548;2024-03-07T01:38:30;24.02;;;13.35;;
48805;SDS011;34625;47.176;27.548;2024-03-07T01:40:57;20.08;;;11.38;;
48805;SDS011;34625;47.176;27.548;2024-03-07T01:43:24;24.77;;;13.13;;
48805;SDS011;34625;47.176;27.548;2024-03-07T01:45:50;23.77;;;12.40;;
48805;SDS011;34625;47.176;27.548;2024-03-07T01:48:25;24.08;;;12.55;;
48805;SDS011;34625;47.176;27.548;2024-03-07T01:50:57;22.00;;;12.32;;
48805;SDS011;34625;47.176;27.548;2024-03-07T01:53:25;18.85;;;10.85;;
48805;SDS011;34625;47.176;27.548;2024-03-07T01:55:52;24.00;;;12.27;;
48805;SDS011;34625;47.176;27.548;2024-03-07T01:58:19;19.60;;;12.10;;
48805;SDS011;34625;47.176;27.548;2024-03-07T02:00:46;21.70;;;12.25;;
48805;SDS011;34625;47.176;27.548;2024-03-07T02:03:13;19.08;;;11.50;;
48805;SDS011;34625;47.176;27.548;2024-03-07T02:05:40;23.55;;;12.55;;
48805;SDS011;34625;47.176;27.548;2024-03-07T02:08:07;20.42;;;12.48;;
48805;SDS011;34625;47.176;27.548;2024-03-07T02:10:33;18.00;;;10.13;;
48805;SDS011;34625;47.176;27.548;2024-03-07T02:12:59;23.45;;;12.25;;
48805;SDS011;34625;47.176;27.548;2024-03-07T02:15:26;22.45;;;12.80;;
48805;SDS011;34625;47.176;27.548;2024-03-07T02:17:53;23.02;;;12.02;;
48805;SDS011;34625;47.176;27.548;2024-03-07T02:20:19;27.63;;;12.90;;
48805;SDS011;34625;47.176;27.548;2024-03-07T02:22:46;24.55;;;13.27;;
48805;SDS011;34625;47.176;27.548;2024-03-07T02:25:12;23.45;;;13.13;;
48805;SDS011;34625;47.176;27.548;2024-03-07T02:27:39;21.90;;;13.05;;
48805;SDS011;34625;47.176;27.548;2024-03-07T02:30:05;25.48;;;12.57;;
48805;SDS011;34625;47.176;27.548;2024-03-07T02:32:34;21.17;;;11.60;;
48805;SDS011;34625;47.176;27.548;2024-03-07T02:35:02;24.42;;;13.18;;
48805;SDS011;34625;47.176;27.548;2024-03-07T02:37:29;25.58;;;12.02;;
48805;SDS011;34625;47.176;27.548;2024-03-07T02:39:55;22.15;;;12.30;;
48805;SDS011;34625;47.176;27.548;2024-03-07T02:42:22;18.30;;;10.57;;
48805;SDS011;34625;47.176;27.548;2024-03-07T02:44:48;16.83;;;10.63;;
48805;SDS011;34625;47.176;27.548;2024-03-07T02:47:15;19.10;;;10.30;;
48805;SDS011;34625;47.176;27.548;2024-03-07T02:49:41;21.05;;;10.32;;
48805;SDS011;34625;47.176;27.548;2024-03-07T02:52:08;27.38;;;13.75;;
48805;SDS011;34625;47.176;27.548;2024-03-07T02:54:34;28.02;;;14.43;;
48805;SDS011;34625;47.176;27.548;2024-03-07T02:57:01;26.40;;;13.65;;
48805;SDS011;34625;47.176;27.548;2024-03-07T02:59:27;25.30;;;13.77;;
48805;SDS011;34625;47.176;27.548;2024-03-07T03:01:54;25.27;;;12.38;;
48805;SDS011;34625;47.176;27.548;2024-03-07T03:04:20;20.25;;;10.32;;
48805;SDS011;34625;47.176;27.548;2024-03-07T03:06:47;22.92;;;11.90;;
48805;SDS011;34625;47.176;27.548;2024-03-07T03:09:14;22.63;;;12.40;;
48805;SDS011;34625;47.176;27.548;2024-03-07T03:11:46;27.60;;;12.48;;
48805;SDS011;34625;47.176;27.548;2024-03-07T03:14:12;25.42;;;12.85;;
48805;SDS011;34625;47.176;27.548;2024-03-07T03:16:43;26.98;;;12.93;;
48805;SDS011;34625;47.176;27.548;2024-03-07T03:19:09;22.55;;;12.25;;
48805;SDS011;34625;47.176;27.548;2024-03-07T03:21:36;20.00;;;11.00;;
48805;SDS011;34625;47.176;27.548;2024-03-07T03:24:03;23.80;;;13.48;;
48805;SDS011;34625;47.176;27.548;2024-03-07T03:26:30;28.20;;;13.13;;
48805;SDS011;34625;47.176;27.548;2024-03-07T03:29:00;25.33;;;13.63;;
48805;SDS011;34625;47.176;27.548;2024-03-07T03:31:26;29.80;;;14.02;;
48805;SDS011;34625;47.176;27.548;2024-03-07T03:33:53;25.27;;;12.85;;
48805;SDS011;34625;47.176;27.548;2024-03-07T03:36:19;23.27;;;12.63;;
48805;SDS011;34625;47.176;27.548;2024-03-07T03:38:46;27.67;;;13.95;;
48805;SDS011;34625;47.176;27.548;2024-03-07T03:41:15;25.38;;;12.82;;
48805;SDS011;34625;47.176;27.548;2024-03-07T03:43:42;26.05;;;12.65;;
48805;SDS011;34625;47.176;27.548;2024-03-07T03:46:09;21.63;;;11.55;;
48805;SDS011;34625;47.176;27.548;2024-03-07T03:48:37;25.98;;;12.75;;
48805;SDS011;34625;47.176;27.548;2024-03-07T03:51:03;24.08;;;13.68;;
48805;SDS011;34625;47.176;27.548;2024-03-07T03:53:30;27.88;;;13.93;;
48805;SDS011;34625;47.176;27.548;2024-03-07T03:55:56;24.38;;;11.90;;
48805;SDS011;34625;47.176;27.548;2024-03-07T03:58:24;23.08;;;12.25;;
48805;SDS011;34625;47.176;27.548;2024-03-07T04:00:51;29.17;;;13.65;;
48805;SDS011;34625;47.176;27.548;2024-03-07T04:03:17;24.60;;;12.30;;
48805;SDS011;34625;47.176;27.548;2024-03-07T04:05:44;24.10;;;11.63;;
48805;SDS011;34625;47.176;27.548;2024-03-07T04:08:12;24.13;;;12.35;;
48805;SDS011;34625;47.176;27.548;2024-03-07T04:10:39;24.70;;;10.75;;
48805;SDS011;34625;47.176;27.548;2024-03-07T04:13:05;18.83;;;11.43;;
48805;SDS011;34625;47.176;27.548;2024-03-07T04:15:33;16.95;;;10.55;;
48805;SDS011;34625;47.176;27.548;2024-03-07T04:17:59;17.05;;;9.82;;
48805;SDS011;34625;47.176;27.548;2024-03-07T04:20:27;20.45;;;11.10;;
48805;SDS011;34625;47.176;27.548;2024-03-07T04:22:53;18.05;;;10.18;;
48805;SDS011;34625;47.176;27.548;2024-03-07T04:25:21;14.05;;;7.85;;
48805;SDS011;34625;47.176;27.548;2024-03-07T04:27:47;13.13;;;7.88;;
48805;SDS011;34625;47.176;27.548;2024-03-07T04:30:15;27.52;;;13.55;;
48805;SDS011;34625;47.176;27.548;2024-03-07T04:32:42;26.67;;;14.18;;
48805;SDS011;34625;47.176;27.548;2024-03-07T04:35:08;28.30;;;14.45;;
48805;SDS011;34625;47.176;27.548;2024-03-07T04:37:38;25.83;;;14.48;;
48805;SDS011;34625;47.176;27.548;2024-03-07T04:40:06;26.20;;;12.80;;
48805;SDS011;34625;47.176;27.548;2024-03-07T04:42:46;32.70;;;15.07;;
48805;SDS011;34625;47.176;27.548;2024-03-07T04:45:16;29.17;;;15.00;;
48805;SDS011;34625;47.176;27.548;2024-03-07T04:47:43;30.45;;;14.38;;
48805;SDS011;34625;47.176;27.548;2024-03-07T04:50:13;28.27;;;13.65;;
48805;SDS011;34625;47.176;27.548;2024-03-07T04:52:42;26.90;;;13.38;;
48805;SDS011;34625;47.176;27.548;2024-03-07T04:55:09;22.92;;;10.05;;
48805;SDS011;34625;47.176;27.548;2024-03-07T04:57:36;24.17;;;10.48;;
48805;SDS011;34625;47.176;27.548;2024-03-07T05:00:08;30.85;;;13.77;;
48805;SDS011;34625;47.176;27.548;2024-03-07T05:02:40;36.53;;;15.20;;
48805;SDS011;34625;47.176;27.548;2024-03-07T05:05:07;28.67;;;12.60;;
48805;SDS011;34625;47.176;27.548;2024-03-07T05:07:33;30.25;;;14.13;;
48805;SDS011;34625;47.176;27.548;2024-03-07T05:10:04;20.13;;;10.20;;
48805;SDS011;34625;47.176;27.548;2024-03-07T05:12:31;30.15;;;14.65;;
48805;SDS011;34625;47.176;27.548;2024-03-07T05:14:58;22.08;;;10.80;;
48805;SDS011;34625;47.176;27.548;2024-03-07T05:17:24;34.35;;;14.85;;
48805;SDS011;34625;47.176;27.548;2024-03-07T05:19:51;31.92;;;15.13;;
48805;SDS011;34625;47.176;27.548;2024-03-07T05:22:17;29.73;;;15.10;;
48805;SDS011;34625;47.176;27.548;2024-03-07T05:24:47;30.60;;;14.57;;
48805;SDS011;34625;47.176;27.548;2024-03-07T05:27:15;31.80;;;14.75;;
48805;SDS011;34625;47.176;27.548;2024-03-07T05:29:42;28.80;;;13.93;;
48805;SDS011;34625;47.176;27.548;2024-03-07T05:32:24;28.83;;;13.77;;
48805;SDS011;34625;47.176;27.548;2024-03-07T05:34:53;27.17;;;14.25;;
48805;SDS011;34625;47.176;27.548;2024-03-07T05:37:20;30.80;;;15.32;;
48805;SDS011;34625;47.176;27.548;2024-03-07T05:39:50;29.58;;;15.77;;
48805;SDS011;34625;47.176;27.548;2024-03-07T05:42:16;22.70;;;11.75;;
48805;SDS011;34625;47.176;27.548;2024-03-07T05:44:43;26.63;;;11.70;;
48805;SDS011;34625;47.176;27.548;2024-03-07T05:47:10;29.65;;;14.68;;
48805;SDS011;34625;47.176;27.548;2024-03-07T05:49:38;28.95;;;14.85;;
48805;SDS011;34625;47.176;27.548;2024-03-07T05:52:05;10.75;;;6.18;;
48805;SDS011;34625;47.176;27.548;2024-03-07T05:54:32;13.20;;;7.72;;
48805;SDS011;34625;47.176;27.548;2024-03-07T05:56:59;29.20;;;10.73;;
48805;SDS011;34625;47.176;27.548;2024-03-07T05:59:25;17.08;;;10.80;;
48805;SDS011;34625;47.176;27.548;2024-03-07T06:01:56;13.60;;;9.18;;
48805;SDS011;34625;47.176;27.548;2024-03-07T06:04:22;18.58;;;9.98;;
48805;SDS011;34625;47.176;27.548;2024-03-07T06:06:49;18.52;;;11.10;;
48805;SDS011;34625;47.176;27.548;2024-03-07T06:09:16;24.13;;;12.85;;
48805;SDS011;34625;47.176;27.548;2024-03-07T06:11:47;28.77;;;14.10;;
48805;SDS011;34625;47.176;27.548;2024-03-07T06:14:14;28.60;;;14.80;;
48805;SDS011;34625;47.176;27.548;2024-03-07T06:16:41;27.63;;;12.23;;
48805;SDS011;34625;47.176;27.548;2024-03-07T06:19:08;24.25;;;11.32;;
48805;SDS011;34625;47.176;27.548;2024-03-07T06:21:35;34.78;;;15.45;;
48805;SDS011;34625;47.176;27.548;2024-03-07T06:24:02;32.47;;;14.88;;
48805;SDS011;34625;47.176;27.548;2024-03-07T06:26:29;34.40;;;16.77;;
48805;SDS011;34625;47.176;27.548;2024-03-07T06:29:34;27.02;;;13.60;;
48805;SDS011;34625;47.176;27.548;2024-03-07T06:32:01;23.52;;;13.27;;
48805;SDS011;34625;47.176;27.548;2024-03-07T06:34:27;38.67;;;16.88;;
48805;SDS011;34625;47.176;27.548;2024-03-07T06:36:55;36.33;;;17.15;;
48805;SDS011;34625;47.176;27.548;2024-03-07T06:39:22;13.35;;;8.65;;
48805;SDS011;34625;47.176;27.548;2024-03-07T06:41:48;30.42;;;11.77;;
48805;SDS011;34625;47.176;27.548;2024-03-07T06:44:15;28.73;;;14.65;;
48805;SDS011;34625;47.176;27.548;2024-03-07T06:46:42;30.52;;;15.10;;
48805;SDS011;34625;47.176;27.548;2024-03-07T06:49:11;35.38;;;15.25;;
48805;SDS011;34625;47.176;27.548;2024-03-07T06:51:37;30.10;;;14.80;;
48805;SDS011;34625;47.176;27.548;2024-03-07T06:54:04;28.38;;;14.43;;
48805;SDS011;34625;47.176;27.548;2024-03-07T06:56:31;27.25;;;14.88;;
48805;SDS011;34625;47.176;27.548;2024-03-07T06:58:57;27.13;;;14.57;;
48805;SDS011;34625;47.176;27.548;2024-03-07T07:01:24;30.90;;;15.05;;
48805;SDS011;34625;47.176;27.548;2024-03-07T07:03:51;32.90;;;15.82;;
48805;SDS011;34625;47.176;27.548;2024-03-07T07:06:20;33.97;;;15.25;;
48805;SDS011;34625;47.176;27.548;2024-03-07T07:08:46;29.75;;;15.63;;
48805;SDS011;34625;47.176;27.548;2024-03-07T07:11:13;31.95;;;15.45;;
48805;SDS011;34625;47.176;27.548;2024-03-07T07:13:39;30.23;;;15.27;;
48805;SDS011;34625;47.176;27.548;2024-03-07T07:16:07;28.52;;;13.10;;
48805;SDS011;34625;47.176;27.548;2024-03-07T07:18:35;33.83;;;15.85;;
48805;SDS011;34625;47.176;27.548;2024-03-07T07:21:02;32.50;;;15.75;;
48805;SDS011;34625;47.176;27.548;2024-03-07T07:23:29;33.20;;;15.48;;
48805;SDS011;34625;47.176;27.548;2024-03-07T07:25:56;30.65;;;14.90;;
48805;SDS011;34625;47.176;27.548;2024-03-07T07:28:22;33.13;;;15.10;;
48805;SDS011;34625;47.176;27.548;2024-03-07T07:30:49;32.58;;;15.10;;
48805;SDS011;34625;47.176;27.548;2024-03-07T07:33:16;28.45;;;13.93;;
48805;SDS011;34625;47.176;27.548;2024-03-07T07:35:43;27.10;;;14.93;;
48805;SDS011;34625;47.176;27.548;2024-03-07T07:38:09;29.92;;;15.70;;
48805;SDS011;34625;47.176;27.548;2024-03-07T07:40:38;32.97;;;14.52;;
48805;SDS011;34625;47.176;27.548;2024-03-07T07:43:05;30.27;;;13.63;;
48805;SDS011;34625;47.176;27.548;2024-03-07T07:45:33;32.58;;;15.23;;
48805;SDS011;34625;47.176;27.548;2024-03-07T07:48:01;30.92;;;14.15;;
48805;SDS011;34625;47.176;27.548;2024-03-07T07:50:28;29.95;;;14.98;;
48805;SDS011;34625;47.176;27.548;2024-03-07T07:52:55;29.45;;;15.02;;
48805;SDS011;34625;47.176;27.548;2024-03-07T07:55:23;17.13;;;10.45;;
48805;SDS011;34625;47.176;27.548;2024-03-07T07:57:51;16.25;;;7.70;;
48805;SDS011;34625;47.176;27.548;2024-03-07T08:00:18;7.45;;;5.13;;
48805;SDS011;34625;47.176;27.548;2024-03-07T08:02:53;11.05;;;5.03;;
48805;SDS011;34625;47.176;27.548;2024-03-07T08:05:20;8.73;;;4.80;;
48805;SDS011;34625;47.176;27.548;2024-03-07T08:07:49;11.98;;;5.93;;
48805;SDS011;34625;47.176;27.548;2024-03-07T08:10:16;15.52;;;6.43;;
48805;SDS011;34625;47.176;27.548;2024-03-07T08:12:43;13.07;;;7.03;;
48805;SDS011;34625;47.176;27.548;2024-03-07T08:15:11;15.65;;;7.55;;
48805;SDS011;34625;47.176;27.548;2024-03-07T08:17:42;18.25;;;8.27;;
48805;SDS011;34625;47.176;27.548;2024-03-07T08:20:10;29.35;;;13.15;;
48805;SDS011;34625;47.176;27.548;2024-03-07T08:22:40;16.50;;;6.80;;
48805;SDS011;34625;47.176;27.548;2024-03-07T08:25:16;16.17;;;8.95;;
48805;SDS011;34625;47.176;27.548;2024-03-07T08:27:44;13.82;;;6.63;;
48805;SDS011;34625;47.176;27.548;2024-03-07T08:30:11;12.23;;;7.18;;
48805;SDS011;34625;47.176;27.548;2024-03-07T08:32:41;18.00;;;8.57;;
48805;SDS011;34625;47.176;27.548;2024-03-07T08:35:08;13.40;;;7.80;;
48805;SDS011;34625;47.176;27.548;2024-03-07T08:37:38;12.55;;;7.45;;
48805;SDS011;34625;47.176;27.548;2024-03-07T08:40:05;15.65;;;8.02;;
48805;SDS011;34625;47.176;27.548;2024-03-07T08:42:33;14.20;;;7.72;;
48805;SDS011;34625;47.176;27.548;2024-03-07T08:45:00;12.70;;;7.97;;
48805;SDS011;34625;47.176;27.548;2024-03-07T08:47:30;13.02;;;8.07;;
48805;SDS011;34625;47.176;27.548;2024-03-07T08:49:57;18.30;;;9.27;;
48805;SDS011;34625;47.176;27.548;2024-03-07T08:52:24;16.58;;;8.30;;
48805;SDS011;34625;47.176;27.548;2024-03-07T08:54:50;11.88;;;7.22;;
48805;SDS011;34625;47.176;27.548;2024-03-07T08:57:17;14.95;;;7.60;;
48805;SDS011;34625;47.176;27.548;2024-03-07T08:59:44;14.13;;;7.95;;
48805;SDS011;34625;47.176;27.548;2024-03-07T09:02:11;21.27;;;11.48;;
48805;SDS011;34625;47.176;27.548;2024-03-07T09:04:37;16.50;;;8.63;;
48805;SDS011;34625;47.176;27.548;2024-03-07T09:07:04;19.00;;;9.60;;
48805;SDS011;34625;47.176;27.548;2024-03-07T09:09:34;24.95;;;13.48;;
48805;SDS011;34625;47.176;27.548;2024-03-07T09:12:01;26.67;;;13.40;;
48805;SDS011;34625;47.176;27.548;2024-03-07T09:14:28;26.80;;;13.38;;
48805;SDS011;34625;47.176;27.548;2024-03-07T09:16:55;26.90;;;14.02;;
48805;SDS011;34625;47.176;27.548;2024-03-07T09:19:22;25.65;;;12.48;;
48805;SDS011;34625;47.176;27.548;2024-03-07T09:21:52;21.92;;;12.93;;
48805;SDS011;34625;47.176;27.548;2024-03-07T09:24:19;26.02;;;14.00;;
48805;SDS011;34625;47.176;27.548;2024-03-07T09:26:49;25.33;;;12.60;;
48805;SDS011;34625;47.176;27.548;2024-03-07T09:29:19;24.77;;;13.02;;
48805;SDS011;34625;47.176;27.548;2024-03-07T09:31:46;23.90;;;13.02;;
48805;SDS011;34625;47.176;27.548;2024-03-07T09:34:13;28.15;;;13.73;;
48805;SDS011;34625;47.176;27.548;2024-03-07T09:36:40;25.52;;;13.15;;
48805;SDS011;34625;47.176;27.548;2024-03-07T09:39:07;25.48;;;11.77;;
48805;SDS011;34625;47.176;27.548;2024-03-07T09:41:34;22.75;;;12.40;;
48805;SDS011;34625;47.176;27.548;2024-03-07T09:44:01;21.85;;;12.18;;
48805;SDS011;34625;47.176;27.548;2024-03-07T09:46:28;26.98;;;13.98;;
48805;SDS011;34625;47.176;27.548;2024-03-07T09:48:55;25.58;;;12.85;;
48805;SDS011;34625;47.176;27.548;2024-03-07T09:51:21;25.98;;;11.55;;
48805;SDS011;34625;47.176;27.548;2024-03-07T09:53:48;23.80;;;12.45;;
48805;SDS011;34625;47.176;27.548;2024-03-07T09:56:22;31.27;;;12.57;;
48805;SDS011;34625;47.176;27.548;2024-03-07T09:58:48;24.48;;;12.32;;
48805;SDS011;34625;47.176;27.548;2024-03-07T10:01:15;21.67;;;11.90;;
48805;SDS011;34625;47.176;27.548;2024-03-07T10:03:44;15.30;;;8.35;;
48805;SDS011;34625;47.176;27.548;2024-03-07T10:06:11;24.92;;;12.52;;
48805;SDS011;34625;47.176;27.548;2024-03-07T10:08:39;25.40;;;11.95;;
48805;SDS011;34625;47.176;27.548;2024-03-07T10:11:06;27.67;;;12.50;;
48805;SDS011;34625;47.176;27.548;2024-03-07T10:13:34;30.15;;;12.68;;
48805;SDS011;34625;47.176;27.548;2024-03-07T10:16:01;26.13;;;13.10;;
48805;SDS011;34625;47.176;27.548;2024-03-07T10:18:31;21.98;;;11.73;;
48805;SDS011;34625;47.176;27.548;2024-03-07T10:20:57;26.27;;;13.05;;
48805;SDS011;34625;47.176;27.548;2024-03-07T10:23:25;22.88;;;12.50;;
48805;SDS011;34625;47.176;27.548;2024-03-07T10:25:51;17.60;;;8.90;;
48805;SDS011;34625;47.176;27.548;2024-03-07T10:28:20;20.58;;;11.20;;
48805;SDS011;34625;47.176;27.548;2024-03-07T10:30:47;21.02;;;11.63;;
48805;SDS011;34625;47.176;27.548;2024-03-07T10:33:16;25.65;;;12.05;;
48805;SDS011;34625;47.176;27.548;2024-03-07T10:35:46;25.70;;;10.20;;
48805;SDS011;34625;47.176;27.548;2024-03-07T10:40:47;25.02;;;12.00;;
48805;SDS011;34625;47.176;27.548;2024-03-07T10:43:15;24.60;;;11.93;;
48805;SDS011;34625;47.176;27.548;2024-03-07T10:45:46;29.30;;;13.32;;
48805;SDS011;34625;47.176;27.548;2024-03-07T10:48:13;21.15;;;11.20;;
48805;SDS011;34625;47.176;27.548;2024-03-07T10:53:20;25.83;;;11.87;;
48805;SDS011;34625;47.176;27.548;2024-03-07T11:01:21;22.45;;;10.98;;
48805;SDS011;34625;47.176;27.548;2024-03-07T11:03:50;22.42;;;11.75;;
48805;SDS011;34625;47.176;27.548;2024-03-07T11:06:17;20.98;;;11.15;;
48805;SDS011;34625;47.176;27.548;2024-03-07T11:08:44;23.63;;;11.05;;
48805;SDS011;34625;47.176;27.548;2024-03-07T11:11:11;19.40;;;9.52;;
48805;SDS011;34625;47.176;27.548;2024-03-07T11:13:37;28.75;;;13.85;;
48805;SDS011;34625;47.176;27.548;2024-03-07T11:16:04;24.52;;;11.07;;
48805;SDS011;34625;47.176;27.548;2024-03-07T11:18:32;22.88;;;11.73;;
48805;SDS011;34625;47.176;27.548;2024-03-07T11:20:58;18.52;;;9.30;;
48805;SDS011;34625;47.176;27.548;2024-03-07T11:23:28;19.65;;;10.32;;
48805;SDS011;34625;47.176;27.548;2024-03-07T11:26:02;19.73;;;10.15;;
48805;SDS011;34625;47.176;27.548;2024-03-07T11:28:33;16.73;;;8.00;;
48805;SDS011;34625;47.176;27.548;2024-03-07T11:36:42;19.05;;;11.13;;
48805;SDS011;34625;47.176;27.548;2024-03-07T11:39:38;23.27;;;11.27;;
48805;SDS011;34625;47.176;27.548;2024-03-07T11:41:57;17.60;;;10.65;;
48805;SDS011;34625;47.176;27.548;2024-03-07T11:44:23;15.55;;;9.10;;
48805;SDS011;34625;47.176;27.548;2024-03-07T11:46:49;25.23;;;13.45;;
48805;SDS011;34625;47.176;27.548;2024-03-07T11:49:16;16.38;;;9.73;;
48805;SDS011;34625;47.176;27.548;2024-03-07T11:51:44;19.88;;;10.90;;
48805;SDS011;34625;47.176;27.548;2024-03-07T11:54:13;17.10;;;10.88;;
48805;SDS011;34625;47.176;27.548;2024-03-07T11:56:40;18.08;;;10.88;;
48805;SDS011;34625;47.176;27.548;2024-03-07T11:59:06;41.45;;;13.07;;
48805;SDS011;34625;47.176;27.548;2024-03-07T12:01:33;48.35;;;14.18;;
48805;SDS011;34625;47.176;27.548;2024-03-07T12:04:05;24.33;;;11.57;;
48805;SDS011;34625;47.176;27.548;2024-03-07T12:06:32;20.13;;;11.23;;
48805;SDS011;34625;47.176;27.548;2024-03-07T12:09:01;15.85;;;10.30;;
48805;SDS011;34625;47.176;27.548;2024-03-07T12:11:31;23.90;;;11.35;;
48805;SDS011;34625;47.176;27.548;2024-03-07T12:14:01;20.58;;;12.40;;
48805;SDS011;34625;47.176;27.548;2024-03-07T12:16:29;21.77;;;13.15;;
48805;SDS011;34625;47.176;27.548;2024-03-07T12:18:57;19.90;;;12.60;;
48805;SDS011;34625;47.176;27.548;2024-03-07T12:21:24;19.60;;;12.32;;
48805;SDS011;34625;47.176;27.548;2024-03-07T12:23:55;27.02;;;13.63;;
48805;SDS011;34625;47.176;27.548;2024-03-07T12:26:21;22.05;;;11.23;;
48805;SDS011;34625;47.176;27.548;2024-03-07T12:28:50;21.88;;;10.63;;
48805;SDS011;34625;47.176;27.548;2024-03-07T12:31:18;22.10;;;12.38;;
48805;SDS011;34625;47.176;27.548;2024-03-07T12:33:47;21.70;;;11.68;;
48805;SDS011;34625;47.176;27.548;2024-03-07T12:36:16;22.98;;;11.40;;
48805;SDS011;34625;47.176;27.548;2024-03-07T12:38:43;20.17;;;10.57;;
48805;SDS011;34625;47.176;27.548;2024-03-07T12:41:10;23.60;;;11.18;;
48805;SDS011;34625;47.176;27.548;2024-03-07T12:43:40;26.27;;;11.68;;
48805;SDS011;34625;47.176;27.548;2024-03-07T12:46:07;19.45;;;10.20;;
48805;SDS011;34625;47.176;27.548;2024-03-07T12:48:38;23.67;;;11.45;;
48805;SDS011;34625;47.176;27.548;2024-03-07T12:51:04;20.92;;;10.23;;
48805;SDS011;34625;47.176;27.548;2024-03-07T12:53:31;21.70;;;9.93;;
48805;SDS011;34625;47.176;27.548;2024-03-07T12:56:00;26.10;;;10.98;;
48805;SDS011;34625;47.176;27.548;2024-03-07T12:58:28;23.15;;;10.25;;
48805;SDS011;34625;47.176;27.548;2024-03-07T13:00:55;18.25;;;9.50;;
48805;SDS011;34625;47.176;27.548;2024-03-07T13:03:23;21.73;;;10.18;;
48805;SDS011;34625;47.176;27.548;2024-03-07T13:05:53;22.80;;;10.18;;
48805;SDS011;34625;47.176;27.548;2024-03-07T13:08:20;19.42;;;10.05;;
48805;SDS011;34625;47.176;27.548;2024-03-07T13:10:51;21.80;;;9.60;;
48805;SDS011;34625;47.176;27.548;2024-03-07T13:13:20;20.67;;;10.98;;
48805;SDS011;34625;47.176;27.548;2024-03-07T13:15:48;22.60;;;9.55;;
48805;SDS011;34625;47.176;27.548;2024-03-07T13:18:14;16.75;;;9.27;;
48805;SDS011;34625;47.176;27.548;2024-03-07T13:20:41;19.05;;;9.38;;
48805;SDS011;34625;47.176;27.548;2024-03-07T13:23:11;21.23;;;9.50;;
48805;SDS011;34625;47.176;27.548;2024-03-07T13:25:38;21.65;;;9.40;;
48805;SDS011;34625;47.176;27.548;2024-03-07T13:28:06;23.30;;;9.85;;
48805;SDS011;34625;47.176;27.548;2024-03-07T13:30:42;17.50;;;9.18;;
48805;SDS011;34625;47.176;27.548;2024-03-07T13:33:09;19.67;;;9.77;;
48805;SDS011;34625;47.176;27.548;2024-03-07T13:35:37;28.05;;;10.50;;
48805;SDS011;34625;47.176;27.548;2024-03-07T13:38:04;18.88;;;10.07;;
48805;SDS011;34625;47.176;27.548;2024-03-07T13:40:32;21.60;;;10.55;;
48805;SDS011;34625;47.176;27.548;2024-03-07T13:43:04;21.70;;;10.32;;
48805;SDS011;34625;47.176;27.548;2024-03-07T13:45:31;21.42;;;10.50;;
48805;SDS011;34625;47.176;27.548;2024-03-07T13:48:05;21.13;;;9.82;;
48805;SDS011;34625;47.176;27.548;2024-03-07T13:50:32;21.33;;;10.52;;
48805;SDS011;34625;47.176;27.548;2024-03-07T13:52:59;22.02;;;9.82;;
48805;SDS011;34625;47.176;27.548;2024-03-07T13:58:06;23.98;;;10.32;;
48805;SDS011;34625;47.176;27.548;2024-03-07T14:00:40;18.75;;;9.75;;
48805;SDS011;34625;47.176;27.548;2024-03-07T14:08:23;14.20;;;8.63;;
48805;SDS011;34625;47.176;27.548;2024-03-07T14:11:01;17.38;;;9.13;;
48805;SDS011;34625;47.176;27.548;2024-03-07T14:27:21;19.92;;;9.38;;
48805;SDS011;34625;47.176;27.548;2024-03-07T14:32:16;20.75;;;9.15;;
48805;SDS011;34625;47.176;27.548;2024-03-07T14:37:18;15.95;;;8.20;;
48805;SDS011;34625;47.176;27.548;2024-03-07T14:39:48;16.25;;;8.77;;
48805;SDS011;34625;47.176;27.548;2024-03-07T14:42:16;17.35;;;8.38;;
48805;SDS011;34625;47.176;27.548;2024-03-07T14:44:43;20.55;;;8.75;;
48805;SDS011;34625;47.176;27.548;2024-03-07T14:47:14;17.20;;;8.95;;
48805;SDS011;34625;47.176;27.548;2024-03-07T14:49:42;17.02;;;8.90;;
48805;SDS011;34625;47.176;27.548;2024-03-07T14:52:08;17.08;;;9.15;;
48805;SDS011;34625;47.176;27.548;2024-03-07T14:54:38;18.30;;;9.35;;
48805;SDS011;34625;47.176;27.548;2024-03-07T14:57:05;19.15;;;8.63;;